Gorch Fock — DRAX — position and weather

sailwx.info

Track history (hours):
 
Tides and Currents Weather Stations Pressure Air Temp Water Temp Dewpoint Dewpoint Depression Visibility Wind Speed Wind Dir Waves Ship Positions

Gorch Fock (Germany)

Ship's website: http://www.marine.de/01DB070000000001/CurrentBaseLink/W2698K4S188INFODE

Last reported at 2014-Oct-23 01:23 UTC. Time now 2014-Oct-23 01:46 UTC.
Position N 39°51' W 010°22'.

Length 89 m; draft 5.4 m.

Type: Sailing vessel. MMSI: 211210280.

Date/timePositionNaut miles runAvg speedWind from/ knotsBaromVisibWave heightAir tempDewpointWater temp
2014-Oct-23 01:23N 39°51' W 010°22'4 4.5
2014-Oct-23 00:32N 39°55' W 010°23'  
2014-Oct-18 02:03N 45°41' W 003°27'4 4.0
2014-Oct-18 01:08N 45°40' W 003°22'4 5.9
2014-Oct-18 00:32N 45°41' W 003°17'7 6.6
2014-Oct-17 23:26N 45°42' W 003°07'7 7.3
2014-Oct-17 22:26N 45°43' W 002°57'7 6.8
2014-Oct-17 21:27N 45°44' W 002°47'7 7.7
2014-Oct-17 20:31N 45°47' W 002°38'8 7.8
2014-Oct-17 19:33N 45°49' W 002°27'8 8.1
2014-Oct-17 18:32N 45°50' W 002°15'7 7.7
2014-Oct-17 17:33N 45°53' W 002°06'6 6.4
2014-Oct-17 16:33N 45°56' W 001°58'6 6.1
2014-Oct-17 15:33N 45°59' W 001°50'8 8.2
2014-Oct-17 14:33N 46°02' W 001°39'6 6.3
2014-Oct-17 13:33N 46°05' W 001°31'5 5.2
2014-Oct-17 12:32N 46°06' W 001°24'  
2014-Oct-14 07:18N 46°10' W 001°13'0 0.0
2014-Oct-14 06:30N 46°10' W 001°13'0 0.0
2014-Oct-14 05:33N 46°10' W 001°13'0 0.0
2014-Oct-14 04:33N 46°10' W 001°13'0 0.0
2014-Oct-14 03:18N 46°10' W 001°13'  
Track history (hours):
 
Tides and Currents Weather Stations Pressure Air Temp Water Temp Dewpoint Dewpoint Depression Visibility Wind Speed Wind Dir Waves Ship Positions

Gorch Fock (Germany)

Ship's website: http://www.marine.de/01DB070000000001/CurrentBaseLink/W2698K4S188INFODE

Last reported at 2014-Oct-23 01:23 UTC. Time now 2014-Oct-23 01:46 UTC.
Position N 39°51' W 010°22'.

Length 89 m; draft 5.4 m.

Type: Sailing vessel. MMSI: 211210280.

Date/timePositionNaut miles runAvg speedWind from/ knotsBaromVisibWave heightAir tempDewpointWater temp
2014-Oct-23 01:23N 39°51' W 010°22'4 4.5
2014-Oct-23 00:32N 39°55' W 010°23'  
2014-Oct-18 02:03N 45°41' W 003°27'4 4.0
2014-Oct-18 01:08N 45°40' W 003°22'4 5.9
2014-Oct-18 00:32N 45°41' W 003°17'7 6.6
2014-Oct-17 23:26N 45°42' W 003°07'7 7.3
2014-Oct-17 22:26N 45°43' W 002°57'7 6.8
2014-Oct-17 21:27N 45°44' W 002°47'7 7.7
2014-Oct-17 20:31N 45°47' W 002°38'8 7.8
2014-Oct-17 19:33N 45°49' W 002°27'8 8.1
2014-Oct-17 18:32N 45°50' W 002°15'7 7.7
2014-Oct-17 17:33N 45°53' W 002°06'6 6.4
2014-Oct-17 16:33N 45°56' W 001°58'6 6.1
2014-Oct-17 15:33N 45°59' W 001°50'8 8.2
2014-Oct-17 14:33N 46°02' W 001°39'6 6.3
2014-Oct-17 13:33N 46°05' W 001°31'5 5.2
2014-Oct-17 12:32N 46°06' W 001°24'  
2014-Oct-14 07:18N 46°10' W 001°13'0 0.0
2014-Oct-14 06:30N 46°10' W 001°13'0 0.0
2014-Oct-14 05:33N 46°10' W 001°13'0 0.0
2014-Oct-14 04:33N 46°10' W 001°13'0 0.0
2014-Oct-14 03:18N 46°10' W 001°13'  

Dump ship's entire track history